CFG3X EDDB-EDDH
Flight info
| Callsign | CFG3X |
|---|---|
| Flight time | 1h 20m |
| Altitude | 24000 |
| Route | SUKIP3Q SUKIP M748 RARUP RARUP6A |
| Aircraft | A21N/M-SDE2E3FGHIRWXY/LB1 |
Departure
| Time | 2026-05-07 19:06 |
|---|---|
| Airport | Berlin Brandenburg Airport (EDDB) |
Arrival
| Time | 2026-05-07 20:26 |
|---|---|
| Airport | Hamburg Helmut Schmidt Airport (EDDH) |
| Time | Latitude | Longitude | Altitude | Speed | Heading |
|---|---|---|---|---|---|
| 2026-05-07 18:03 | 52.36120 | 13.51300 | 160 ft | 0 kts | 339° |
| 2026-05-07 18:49 | 52.36099 | 13.51313 | 160 ft | 4 kts | 339° |
| 2026-05-07 18:49 | 52.36078 | 13.51326 | 160 ft | 3 kts | 338° |
| 2026-05-07 18:49 | 52.36057 | 13.51348 | 160 ft | 4 kts | 302° |
| 2026-05-07 18:49 | 52.36051 | 13.51386 | 160 ft | 4 kts | 255° |
| 2026-05-07 18:50 | 52.36053 | 13.51395 | 160 ft | 0 kts | 249° |
| 2026-05-07 18:53 | 52.36050 | 13.51380 | 160 ft | 4 kts | 249° |
| 2026-05-07 18:53 | 52.36034 | 13.51314 | 160 ft | 9 kts | 250° |
| 2026-05-07 18:53 | 52.36009 | 13.51206 | 160 ft | 11 kts | 248° |
| 2026-05-07 18:53 | 52.35979 | 13.51082 | 160 ft | 12 kts | 248° |
| 2026-05-07 18:54 | 52.35946 | 13.50945 | 160 ft | 14 kts | 249° |
| 2026-05-07 18:54 | 52.35910 | 13.50794 | 160 ft | 15 kts | 249° |
| 2026-05-07 18:54 | 52.35883 | 13.50679 | 160 ft | 6 kts | 246° |
| 2026-05-07 18:54 | 52.35851 | 13.50631 | 160 ft | 7 kts | 194° |
| 2026-05-07 18:55 | 52.35792 | 13.50633 | 160 ft | 9 kts | 200° |
| 2026-05-07 18:55 | 52.35753 | 13.50539 | 160 ft | 11 kts | 251° |
| 2026-05-07 18:55 | 52.35724 | 13.50410 | 160 ft | 13 kts | 248° |
| 2026-05-07 18:55 | 52.35688 | 13.50271 | 160 ft | 14 kts | 248° |
| 2026-05-07 18:56 | 52.35652 | 13.50117 | 160 ft | 15 kts | 249° |
| 2026-05-07 18:56 | 52.35614 | 13.49954 | 160 ft | 16 kts | 249° |
| 2026-05-07 18:56 | 52.35572 | 13.49776 | 160 ft | 17 kts | 248° |
| 2026-05-07 18:56 | 52.35527 | 13.49589 | 160 ft | 18 kts | 249° |
| 2026-05-07 18:57 | 52.35481 | 13.49393 | 160 ft | 19 kts | 249° |
| 2026-05-07 18:57 | 52.35433 | 13.49187 | 161 ft | 20 kts | 249° |
| 2026-05-07 18:57 | 52.35383 | 13.48975 | 160 ft | 21 kts | 249° |
| 2026-05-07 18:57 | 52.35330 | 13.48753 | 160 ft | 21 kts | 248° |
| 2026-05-07 18:58 | 52.35289 | 13.48583 | 160 ft | 10 kts | 248° |
| 2026-05-07 18:58 | 52.35251 | 13.48487 | 160 ft | 11 kts | 201° |
| 2026-05-07 18:58 | 52.35172 | 13.48504 | 160 ft | 12 kts | 160° |
| 2026-05-07 18:58 | 52.35115 | 13.48556 | 160 ft | 2 kts | 134° |
| 2026-05-07 18:59 | 52.35108 | 13.48573 | 160 ft | 0 kts | 109° |
| 2026-05-07 19:01 | 52.35108 | 13.48574 | 160 ft | 1 kts | 109° |
| 2026-05-07 19:01 | 52.35103 | 13.48597 | 160 ft | 4 kts | 108° |
| 2026-05-07 19:01 | 52.35098 | 13.48638 | 160 ft | 0 kts | 98° |
| 2026-05-07 19:04 | 52.35098 | 13.48643 | 160 ft | 2 kts | 98° |
| 2026-05-07 19:04 | 52.35093 | 13.48696 | 160 ft | 7 kts | 99° |
| 2026-05-07 19:04 | 52.35082 | 13.48808 | 160 ft | 12 kts | 99° |
| 2026-05-07 19:05 | 52.35071 | 13.48949 | 160 ft | 13 kts | 114° |
| 2026-05-07 19:05 | 52.35061 | 13.49016 | 160 ft | 11 kts | 84° |
| 2026-05-07 19:05 | 52.35175 | 13.49487 | 160 ft | 81 kts | 67° |
| 2026-05-07 19:05 | 52.35451 | 13.50683 | 160 ft | 146 kts | 69° |
| 2026-05-07 19:06 | 52.35861 | 13.52407 | 546 ft | 167 kts | 68° |
| 2026-05-07 19:06 | 52.35711 | 13.56039 | 1759 ft | 193 kts | 136° |
| 2026-05-07 19:06 | 52.34399 | 13.56845 | 2185 ft | 215 kts | 174° |
| 2026-05-07 19:07 | 52.32884 | 13.56435 | 2766 ft | 231 kts | 200° |
| 2026-05-07 19:07 | 52.31506 | 13.54902 | 3163 ft | 254 kts | 220° |
| 2026-05-07 19:07 | 52.30119 | 13.52921 | 3678 ft | 270 kts | 220° |
| 2026-05-07 19:07 | 52.28687 | 13.50897 | 4517 ft | 274 kts | 220° |
| 2026-05-07 19:08 | 52.27223 | 13.48884 | 5389 ft | 277 kts | 224° |
| 2026-05-07 19:08 | 52.26150 | 13.46296 | 6192 ft | 280 kts | 248° |
| 2026-05-07 19:08 | 52.25600 | 13.43279 | 7049 ft | 278 kts | 263° |
| 2026-05-07 19:08 | 52.25786 | 13.40146 | 7717 ft | 281 kts | 291° |
| 2026-05-07 19:09 | 52.26747 | 13.37399 | 8514 ft | 281 kts | 309° |
| 2026-05-07 19:09 | 52.27926 | 13.34842 | 9284 ft | 284 kts | 307° |
| 2026-05-07 19:09 | 52.29090 | 13.32216 | 10054 ft | 286 kts | 306° |
| 2026-05-07 19:09 | 52.30267 | 13.29503 | 10489 ft | 301 kts | 306° |
| 2026-05-07 19:10 | 52.31501 | 13.26622 | 10769 ft | 319 kts | 306° |
| 2026-05-07 19:10 | 52.32807 | 13.23553 | 11026 ft | 338 kts | 305° |
| 2026-05-07 19:10 | 52.34179 | 13.20305 | 11269 ft | 356 kts | 305° |
| 2026-05-07 19:10 | 52.35616 | 13.16893 | 11519 ft | 373 kts | 305° |
| 2026-05-07 19:11 | 52.37115 | 13.13321 | 11755 ft | 388 kts | 305° |
| 2026-05-07 19:11 | 52.38655 | 13.09642 | 12173 ft | 395 kts | 304° |
| 2026-05-07 19:11 | 52.40218 | 13.05916 | 12696 ft | 398 kts | 304° |
| 2026-05-07 19:11 | 52.41789 | 13.02170 | 13217 ft | 400 kts | 305° |
| 2026-05-07 19:12 | 52.43370 | 12.98394 | 13734 ft | 404 kts | 305° |
| 2026-05-07 19:12 | 52.44940 | 12.94638 | 14208 ft | 406 kts | 305° |
| 2026-05-07 19:12 | 52.46560 | 12.90760 | 14706 ft | 407 kts | 305° |
| 2026-05-07 19:12 | 52.48155 | 12.86929 | 15204 ft | 408 kts | 305° |
| 2026-05-07 19:13 | 52.49739 | 12.83122 | 15744 ft | 411 kts | 304° |
| 2026-05-07 19:13 | 52.51375 | 12.79184 | 16307 ft | 413 kts | 304° |
| 2026-05-07 19:13 | 52.52976 | 12.75317 | 16856 ft | 416 kts | 304° |
| 2026-05-07 19:13 | 52.54630 | 12.71320 | 17435 ft | 419 kts | 304° |
| 2026-05-07 19:14 | 52.56265 | 12.67359 | 18119 ft | 417 kts | 304° |
| 2026-05-07 19:14 | 52.57878 | 12.63446 | 18974 ft | 410 kts | 304° |
| 2026-05-07 19:14 | 52.59444 | 12.59645 | 19834 ft | 402 kts | 304° |
| 2026-05-07 19:14 | 52.60994 | 12.55877 | 20751 ft | 394 kts | 304° |
| 2026-05-07 19:15 | 52.62510 | 12.52187 | 21652 ft | 385 kts | 304° |
| 2026-05-07 19:15 | 52.63994 | 12.48565 | 22561 ft | 377 kts | 304° |
| 2026-05-07 19:15 | 52.65420 | 12.45077 | 23388 ft | 352 kts | 304° |
| 2026-05-07 19:15 | 52.66775 | 12.41762 | 23856 ft | 348 kts | 304° |
| 2026-05-07 19:16 | 52.68128 | 12.38451 | 24030 ft | 349 kts | 304° |
| 2026-05-07 19:16 | 52.69487 | 12.35123 | 24095 ft | 350 kts | 304° |
| 2026-05-07 19:16 | 52.70843 | 12.31790 | 24110 ft | 350 kts | 304° |
| 2026-05-07 19:16 | 52.72198 | 12.28457 | 24113 ft | 349 kts | 304° |
| 2026-05-07 19:17 | 52.73543 | 12.25131 | 24112 ft | 349 kts | 301° |
| 2026-05-07 19:17 | 52.74501 | 12.21570 | 24098 ft | 332 kts | 288° |
| 2026-05-07 19:17 | 52.75140 | 12.17938 | 24099 ft | 328 kts | 285° |
| 2026-05-07 19:17 | 52.75719 | 12.14290 | 24105 ft | 329 kts | 284° |
| 2026-05-07 19:18 | 52.76288 | 12.10641 | 24112 ft | 328 kts | 284° |
| 2026-05-07 19:18 | 52.76855 | 12.06994 | 24114 ft | 327 kts | 284° |
| 2026-05-07 19:18 | 52.77420 | 12.03350 | 24114 ft | 328 kts | 284° |
| 2026-05-07 19:18 | 52.77986 | 11.99697 | 24116 ft | 328 kts | 284° |
| 2026-05-07 19:19 | 52.78550 | 11.96051 | 24114 ft | 328 kts | 284° |
| 2026-05-07 19:19 | 52.79115 | 11.92405 | 24114 ft | 328 kts | 284° |
| 2026-05-07 19:19 | 52.79679 | 11.88757 | 24113 ft | 328 kts | 284° |
| 2026-05-07 19:19 | 52.80244 | 11.85106 | 24113 ft | 328 kts | 284° |
| 2026-05-07 19:20 | 52.80808 | 11.81458 | 24116 ft | 328 kts | 284° |
| 2026-05-07 19:20 | 52.81372 | 11.77803 | 24116 ft | 328 kts | 284° |
| 2026-05-07 19:20 | 52.81936 | 11.74147 | 24116 ft | 329 kts | 284° |
| 2026-05-07 19:20 | 52.82501 | 11.70487 | 24116 ft | 328 kts | 284° |
| 2026-05-07 19:21 | 52.83071 | 11.66838 | 24113 ft | 327 kts | 288° |
| 2026-05-07 19:21 | 52.84022 | 11.63448 | 24109 ft | 326 kts | 305° |
| 2026-05-07 19:21 | 52.85576 | 11.60734 | 24116 ft | 327 kts | 321° |
| 2026-05-07 19:21 | 52.87408 | 11.58502 | 24119 ft | 327 kts | 324° |
| 2026-05-07 19:22 | 52.89270 | 11.56343 | 24120 ft | 327 kts | 324° |
| 2026-05-07 19:22 | 52.91100 | 11.54188 | 24119 ft | 327 kts | 323° |
| 2026-05-07 19:22 | 52.92946 | 11.51978 | 24118 ft | 327 kts | 323° |
| 2026-05-07 19:22 | 52.94783 | 11.49754 | 24118 ft | 327 kts | 323° |
| 2026-05-07 19:23 | 52.96618 | 11.47517 | 24022 ft | 327 kts | 323° |
| 2026-05-07 19:23 | 52.98443 | 11.45288 | 23777 ft | 325 kts | 322° |
| 2026-05-07 19:23 | 53.00261 | 11.43061 | 23526 ft | 324 kts | 322° |
| 2026-05-07 19:23 | 53.02073 | 11.40839 | 23254 ft | 323 kts | 322° |
| 2026-05-07 19:24 | 53.03878 | 11.38623 | 22974 ft | 322 kts | 322° |
| 2026-05-07 19:24 | 53.05674 | 11.36414 | 22700 ft | 321 kts | 322° |
| 2026-05-07 19:24 | 53.07460 | 11.34214 | 22428 ft | 319 kts | 322° |
| 2026-05-07 19:24 | 53.09242 | 11.32019 | 22162 ft | 318 kts | 322° |
| 2026-05-07 19:25 | 53.11018 | 11.29828 | 21894 ft | 317 kts | 322° |
| 2026-05-07 19:25 | 53.12803 | 11.27682 | 21627 ft | 316 kts | 324° |
| 2026-05-07 19:25 | 53.14607 | 11.25595 | 21368 ft | 315 kts | 324° |
| 2026-05-07 19:25 | 53.16405 | 11.23527 | 21102 ft | 314 kts | 324° |
| 2026-05-07 19:26 | 53.18198 | 11.21465 | 20849 ft | 313 kts | 324° |
| 2026-05-07 19:26 | 53.19987 | 11.19405 | 20510 ft | 311 kts | 324° |
| 2026-05-07 19:26 | 53.21762 | 11.17358 | 20136 ft | 310 kts | 324° |
| 2026-05-07 19:26 | 53.23532 | 11.15312 | 19786 ft | 309 kts | 324° |
| 2026-05-07 19:27 | 53.25292 | 11.13273 | 19389 ft | 307 kts | 324° |
| 2026-05-07 19:27 | 53.27040 | 11.11246 | 18973 ft | 305 kts | 324° |
| 2026-05-07 19:27 | 53.28777 | 11.09231 | 18538 ft | 303 kts | 324° |
| 2026-05-07 19:27 | 53.30509 | 11.07218 | 18012 ft | 303 kts | 324° |
| 2026-05-07 19:28 | 53.32237 | 11.05210 | 17514 ft | 301 kts | 324° |
| 2026-05-07 19:28 | 53.33947 | 11.03221 | 17091 ft | 298 kts | 324° |
| 2026-05-07 19:28 | 53.35639 | 11.01249 | 16699 ft | 296 kts | 324° |
| 2026-05-07 19:28 | 53.37323 | 10.99285 | 16319 ft | 294 kts | 324° |
| 2026-05-07 19:29 | 53.38996 | 10.97333 | 15948 ft | 293 kts | 324° |
| 2026-05-07 19:29 | 53.40660 | 10.95387 | 15575 ft | 291 kts | 324° |
| 2026-05-07 19:29 | 53.42313 | 10.93448 | 15192 ft | 289 kts | 324° |
| 2026-05-07 19:29 | 53.43955 | 10.91521 | 14857 ft | 288 kts | 324° |
| 2026-05-07 19:30 | 53.45583 | 10.89612 | 14550 ft | 284 kts | 324° |
| 2026-05-07 19:30 | 53.47197 | 10.87718 | 14263 ft | 283 kts | 324° |
| 2026-05-07 19:30 | 53.48809 | 10.85826 | 13974 ft | 282 kts | 324° |
| 2026-05-07 19:30 | 53.50410 | 10.83942 | 13674 ft | 281 kts | 324° |
| 2026-05-07 19:31 | 53.52011 | 10.82059 | 13394 ft | 280 kts | 324° |
| 2026-05-07 19:31 | 53.53602 | 10.80186 | 13047 ft | 279 kts | 324° |
| 2026-05-07 19:31 | 53.55184 | 10.78322 | 12664 ft | 277 kts | 325° |
| 2026-05-07 19:31 | 53.56761 | 10.76462 | 12345 ft | 276 kts | 325° |
| 2026-05-07 19:32 | 53.58331 | 10.74607 | 12026 ft | 275 kts | 325° |
| 2026-05-07 19:32 | 53.59896 | 10.72758 | 11753 ft | 274 kts | 325° |
| 2026-05-07 19:32 | 53.61448 | 10.70919 | 11492 ft | 273 kts | 324° |
| 2026-05-07 19:32 | 53.62840 | 10.68768 | 11234 ft | 273 kts | 305° |
| 2026-05-07 19:33 | 53.63627 | 10.65889 | 11002 ft | 272 kts | 278° |
| 2026-05-07 19:33 | 53.63485 | 10.62734 | 10845 ft | 273 kts | 254° |
| 2026-05-07 19:33 | 53.62871 | 10.59707 | 10718 ft | 272 kts | 250° |
| 2026-05-07 19:33 | 53.62223 | 10.56711 | 10594 ft | 272 kts | 250° |
| 2026-05-07 19:34 | 53.61679 | 10.53668 | 10456 ft | 271 kts | 264° |
| 2026-05-07 19:34 | 53.61843 | 10.50544 | 10332 ft | 271 kts | 288° |
| 2026-05-07 19:34 | 53.62509 | 10.47585 | 10221 ft | 270 kts | 293° |
| 2026-05-07 19:34 | 53.63245 | 10.44716 | 10104 ft | 270 kts | 294° |
| 2026-05-07 19:35 | 53.63996 | 10.41814 | 9982 ft | 270 kts | 294° |
| 2026-05-07 19:35 | 53.64754 | 10.38919 | 9849 ft | 270 kts | 294° |
| 2026-05-07 19:35 | 53.65511 | 10.36024 | 9713 ft | 270 kts | 294° |
| 2026-05-07 19:35 | 53.66058 | 10.33061 | 9563 ft | 265 kts | 274° |
| 2026-05-07 19:36 | 53.65805 | 10.30001 | 9425 ft | 267 kts | 247° |
| 2026-05-07 19:36 | 53.64771 | 10.27453 | 9299 ft | 265 kts | 220° |
| 2026-05-07 19:36 | 53.63179 | 10.25964 | 9160 ft | 263 kts | 193° |
| 2026-05-07 19:36 | 53.61380 | 10.25838 | 9034 ft | 261 kts | 166° |
| 2026-05-07 19:37 | 53.59726 | 10.27017 | 8910 ft | 258 kts | 147° |
| 2026-05-07 19:37 | 53.58223 | 10.28667 | 8787 ft | 258 kts | 144° |
| 2026-05-07 19:37 | 53.56748 | 10.30377 | 8658 ft | 258 kts | 144° |
| 2026-05-07 19:37 | 53.55279 | 10.32096 | 8521 ft | 257 kts | 144° |
| 2026-05-07 19:38 | 53.53807 | 10.33802 | 8395 ft | 257 kts | 144° |
| 2026-05-07 19:38 | 53.52340 | 10.35509 | 8262 ft | 257 kts | 144° |
| 2026-05-07 19:38 | 53.51062 | 10.37558 | 8140 ft | 254 kts | 121° |
| 2026-05-07 19:38 | 53.50483 | 10.40310 | 7989 ft | 251 kts | 93° |
| 2026-05-07 19:39 | 53.50725 | 10.43176 | 7879 ft | 249 kts | 69° |
| 2026-05-07 19:39 | 53.51408 | 10.45850 | 7766 ft | 249 kts | 65° |
| 2026-05-07 19:39 | 53.52149 | 10.48469 | 7647 ft | 248 kts | 64° |
| 2026-05-07 19:39 | 53.52654 | 10.50236 | 7560 ft | 248 kts | 64° |
| 2026-05-07 19:40 | 53.53663 | 10.53659 | 7390 ft | 246 kts | 56° |
| 2026-05-07 19:40 | 53.54892 | 10.55620 | 7254 ft | 246 kts | 29° |
| 2026-05-07 19:40 | 53.56530 | 10.56365 | 7129 ft | 248 kts | 1° |
| 2026-05-07 19:40 | 53.58210 | 10.55715 | 7000 ft | 251 kts | 334° |
| 2026-05-07 19:41 | 53.59672 | 10.54105 | 6894 ft | 252 kts | 325° |
| 2026-05-07 19:41 | 53.61073 | 10.52321 | 6775 ft | 252 kts | 324° |
| 2026-05-07 19:41 | 53.62462 | 10.50524 | 6653 ft | 251 kts | 324° |
| 2026-05-07 19:41 | 53.63846 | 10.48726 | 6531 ft | 251 kts | 324° |
| 2026-05-07 19:42 | 53.65229 | 10.46928 | 6402 ft | 250 kts | 324° |
| 2026-05-07 19:42 | 53.66607 | 10.45133 | 6268 ft | 250 kts | 324° |
| 2026-05-07 19:42 | 53.67870 | 10.43126 | 6120 ft | 252 kts | 305° |
| 2026-05-07 19:42 | 53.68500 | 10.40386 | 5978 ft | 256 kts | 277° |
| 2026-05-07 19:43 | 53.68311 | 10.37427 | 5842 ft | 257 kts | 249° |
| 2026-05-07 19:43 | 53.67458 | 10.34806 | 5724 ft | 255 kts | 236° |
| 2026-05-07 19:43 | 53.66460 | 10.32340 | 5600 ft | 252 kts | 234° |
| 2026-05-07 19:43 | 53.65457 | 10.29906 | 5477 ft | 253 kts | 234° |
| 2026-05-07 19:44 | 53.64457 | 10.27480 | 5361 ft | 251 kts | 234° |
| 2026-05-07 19:44 | 53.63461 | 10.25062 | 5233 ft | 252 kts | 234° |
| 2026-05-07 19:44 | 53.62803 | 10.23454 | 5153 ft | 251 kts | 234° |
| 2026-05-07 19:44 | 53.61813 | 10.21028 | 5034 ft | 251 kts | 234° |
| 2026-05-07 19:45 | 53.60816 | 10.18562 | 4957 ft | 252 kts | 234° |
| 2026-05-07 19:45 | 53.59818 | 10.16100 | 4981 ft | 250 kts | 234° |
| 2026-05-07 19:45 | 53.58768 | 10.13768 | 4987 ft | 251 kts | 230° |
| 2026-05-07 19:45 | 53.57670 | 10.11488 | 4999 ft | 249 kts | 229° |
| 2026-05-07 19:46 | 53.56577 | 10.09239 | 4999 ft | 251 kts | 229° |
| 2026-05-07 19:46 | 53.55476 | 10.06994 | 5003 ft | 252 kts | 229° |
| 2026-05-07 19:46 | 53.54363 | 10.04726 | 5004 ft | 252 kts | 229° |
| 2026-05-07 19:46 | 53.53247 | 10.02456 | 5002 ft | 252 kts | 229° |
| 2026-05-07 19:47 | 53.52132 | 10.00190 | 5005 ft | 252 kts | 229° |
| 2026-05-07 19:47 | 53.51017 | 9.97922 | 5007 ft | 252 kts | 229° |
| 2026-05-07 19:47 | 53.49903 | 9.95657 | 4999 ft | 252 kts | 229° |
| 2026-05-07 19:47 | 53.48790 | 9.93393 | 5001 ft | 252 kts | 229° |
| 2026-05-07 19:48 | 53.47675 | 9.91127 | 5003 ft | 251 kts | 229° |
| 2026-05-07 19:48 | 53.46562 | 9.88867 | 5009 ft | 251 kts | 229° |
| 2026-05-07 19:48 | 53.45449 | 9.86610 | 5012 ft | 251 kts | 229° |
| 2026-05-07 19:48 | 53.44334 | 9.84349 | 5009 ft | 251 kts | 229° |
| 2026-05-07 19:49 | 53.43220 | 9.82094 | 4982 ft | 251 kts | 229° |
| 2026-05-07 19:49 | 53.42103 | 9.79834 | 4982 ft | 251 kts | 229° |
| 2026-05-07 19:49 | 53.40987 | 9.77579 | 4979 ft | 251 kts | 229° |
| 2026-05-07 19:49 | 53.39872 | 9.75327 | 4981 ft | 251 kts | 229° |
| 2026-05-07 19:50 | 53.38756 | 9.73070 | 4983 ft | 252 kts | 229° |
| 2026-05-07 19:50 | 53.37639 | 9.70813 | 4981 ft | 252 kts | 229° |
| 2026-05-07 19:50 | 53.36791 | 9.68263 | 4969 ft | 251 kts | 255° |
| 2026-05-07 19:50 | 53.36734 | 9.65484 | 4875 ft | 233 kts | 285° |
| 2026-05-07 19:51 | 53.37427 | 9.63232 | 4790 ft | 210 kts | 311° |
| 2026-05-07 19:51 | 53.38389 | 9.61403 | 4654 ft | 208 kts | 314° |
| 2026-05-07 19:51 | 53.39356 | 9.59605 | 4426 ft | 208 kts | 314° |
| 2026-05-07 19:51 | 53.40447 | 9.58080 | 4163 ft | 204 kts | 338° |
| 2026-05-07 19:52 | 53.41811 | 9.57737 | 3915 ft | 198 kts | 12° |
| 2026-05-07 19:52 | 53.43000 | 9.58754 | 3760 ft | 192 kts | 42° |
| 2026-05-07 19:52 | 53.43936 | 9.60335 | 3695 ft | 190 kts | 51° |
| 2026-05-07 19:52 | 53.44780 | 9.62039 | 3669 ft | 190 kts | 52° |
| 2026-05-07 19:53 | 53.45627 | 9.63737 | 3651 ft | 189 kts | 52° |
| 2026-05-07 19:53 | 53.46460 | 9.65408 | 3343 ft | 186 kts | 52° |
| 2026-05-07 19:53 | 53.47294 | 9.67084 | 3029 ft | 188 kts | 52° |
| 2026-05-07 19:53 | 53.48133 | 9.68771 | 2979 ft | 189 kts | 52° |
| 2026-05-07 19:54 | 53.48975 | 9.70463 | 2985 ft | 189 kts | 52° |
| 2026-05-07 19:54 | 53.49816 | 9.72154 | 2993 ft | 189 kts | 52° |
| 2026-05-07 19:54 | 53.50658 | 9.73848 | 2997 ft | 189 kts | 52° |
| 2026-05-07 19:54 | 53.51489 | 9.75520 | 3001 ft | 189 kts | 52° |
| 2026-05-07 19:55 | 53.52307 | 9.77165 | 2968 ft | 172 kts | 53° |
| 2026-05-07 19:55 | 53.53058 | 9.78680 | 2822 ft | 168 kts | 53° |
| 2026-05-07 19:55 | 53.53806 | 9.80188 | 2617 ft | 168 kts | 53° |
| 2026-05-07 19:55 | 53.54552 | 9.81691 | 2393 ft | 167 kts | 52° |
| 2026-05-07 19:56 | 53.55293 | 9.83185 | 2164 ft | 166 kts | 53° |
| 2026-05-07 19:56 | 53.56030 | 9.84671 | 1941 ft | 165 kts | 52° |
| 2026-05-07 19:56 | 53.56763 | 9.86151 | 1766 ft | 164 kts | 52° |
| 2026-05-07 19:56 | 53.57451 | 9.87537 | 1526 ft | 144 kts | 52° |
| 2026-05-07 19:57 | 53.58063 | 9.88775 | 1297 ft | 137 kts | 52° |
| 2026-05-07 19:57 | 53.58675 | 9.90009 | 1109 ft | 137 kts | 52° |
| 2026-05-07 19:57 | 53.59274 | 9.91220 | 924 ft | 133 kts | 52° |
| 2026-05-07 19:57 | 53.59863 | 9.92432 | 739 ft | 136 kts | 52° |
| 2026-05-07 19:58 | 53.60474 | 9.93667 | 589 ft | 139 kts | 50° |
| 2026-05-07 19:58 | 53.61105 | 9.94934 | 424 ft | 144 kts | 51° |
| 2026-05-07 19:58 | 53.61762 | 9.96249 | 169 ft | 149 kts | 50° |
| 2026-05-07 19:58 | 53.62442 | 9.97629 | 174 ft | 170 kts | 50° |
| 2026-05-07 19:59 | 53.63169 | 9.99145 | 1145 ft | 170 kts | 52° |
| 2026-05-07 19:59 | 53.63940 | 10.00682 | 1855 ft | 178 kts | 51° |
| 2026-05-07 19:59 | 53.64801 | 10.02325 | 2349 ft | 196 kts | 51° |
| 2026-05-07 19:59 | 53.65754 | 10.04162 | 2775 ft | 219 kts | 51° |
| 2026-05-07 20:00 | 53.66759 | 10.06161 | 3432 ft | 227 kts | 52° |
| 2026-05-07 20:00 | 53.67785 | 10.08264 | 3904 ft | 230 kts | 53° |
| 2026-05-07 20:00 | 53.68668 | 10.10451 | 3953 ft | 228 kts | 69° |
| 2026-05-07 20:00 | 53.68966 | 10.13075 | 3937 ft | 226 kts | 92° |
| 2026-05-07 20:01 | 53.68854 | 10.15686 | 3981 ft | 226 kts | 96° |
| 2026-05-07 20:01 | 53.68695 | 10.18326 | 3994 ft | 226 kts | 96° |
| 2026-05-07 20:01 | 53.68539 | 10.20960 | 3999 ft | 226 kts | 96° |
| 2026-05-07 20:01 | 53.68383 | 10.23599 | 4001 ft | 226 kts | 96° |
| 2026-05-07 20:02 | 53.68227 | 10.26237 | 3999 ft | 226 kts | 96° |
| 2026-05-07 20:02 | 53.68069 | 10.28872 | 3997 ft | 226 kts | 96° |
| 2026-05-07 20:02 | 53.67911 | 10.31505 | 3993 ft | 226 kts | 96° |
| 2026-05-07 20:02 | 53.67753 | 10.34138 | 3998 ft | 226 kts | 96° |
| 2026-05-07 20:03 | 53.67597 | 10.36727 | 4001 ft | 226 kts | 96° |
| 2026-05-07 20:03 | 53.67433 | 10.39408 | 4005 ft | 226 kts | 96° |
| 2026-05-07 20:03 | 53.67273 | 10.42040 | 4003 ft | 226 kts | 96° |
| 2026-05-07 20:03 | 53.66921 | 10.44596 | 3994 ft | 226 kts | 117° |
| 2026-05-07 20:04 | 53.65872 | 10.46552 | 3996 ft | 230 kts | 146° |
| 2026-05-07 20:04 | 53.64445 | 10.47785 | 4004 ft | 231 kts | 153° |
| 2026-05-07 20:04 | 53.62974 | 10.48874 | 4001 ft | 231 kts | 154° |
| 2026-05-07 20:04 | 53.61463 | 10.49993 | 4139 ft | 248 kts | 150° |
| 2026-05-07 20:05 | 53.60176 | 10.51821 | 4696 ft | 234 kts | 123° |
| 2026-05-07 20:05 | 53.59580 | 10.54313 | 4948 ft | 231 kts | 96° |
| 2026-05-07 20:05 | 53.59776 | 10.56964 | 5007 ft | 231 kts | 67° |
| 2026-05-07 20:05 | 53.60608 | 10.59292 | 5019 ft | 233 kts | 55° |
| 2026-05-07 20:06 | 53.61570 | 10.61495 | 5016 ft | 233 kts | 54° |
| 2026-05-07 20:06 | 53.62545 | 10.63686 | 5010 ft | 233 kts | 54° |
| 2026-05-07 20:06 | 53.63518 | 10.65872 | 5010 ft | 234 kts | 54° |
| 2026-05-07 20:06 | 53.64491 | 10.68060 | 5012 ft | 233 kts | 54° |
| 2026-05-07 20:07 | 53.65465 | 10.70248 | 5014 ft | 233 kts | 54° |
| 2026-05-07 20:07 | 53.66441 | 10.72438 | 5015 ft | 233 kts | 54° |
| 2026-05-07 20:07 | 53.67414 | 10.74626 | 5012 ft | 233 kts | 54° |
| 2026-05-07 20:07 | 53.68395 | 10.76811 | 5017 ft | 233 kts | 50° |
| 2026-05-07 20:08 | 53.69713 | 10.78384 | 5008 ft | 237 kts | 21° |
| 2026-05-07 20:08 | 53.71351 | 10.78675 | 5018 ft | 241 kts | 352° |
| 2026-05-07 20:08 | 53.72902 | 10.77586 | 5024 ft | 246 kts | 324° |
| 2026-05-07 20:08 | 53.73988 | 10.75349 | 5021 ft | 250 kts | 295° |
| 2026-05-07 20:09 | 53.74375 | 10.72508 | 5015 ft | 251 kts | 268° |
| 2026-05-07 20:09 | 53.73983 | 10.69650 | 5024 ft | 251 kts | 247° |
| 2026-05-07 20:09 | 53.73279 | 10.66950 | 5027 ft | 251 kts | 244° |
| 2026-05-07 20:10 | 53.71805 | 10.61605 | 5022 ft | 251 kts | 244° |
| 2026-05-07 20:10 | 53.71068 | 10.58937 | 5025 ft | 251 kts | 244° |
| 2026-05-07 20:10 | 53.70338 | 10.56305 | 5025 ft | 251 kts | 244° |
| 2026-05-07 20:10 | 53.69599 | 10.53636 | 5023 ft | 251 kts | 244° |
| 2026-05-07 20:11 | 53.68859 | 10.50967 | 5015 ft | 251 kts | 244° |
| 2026-05-07 20:11 | 53.68110 | 10.48259 | 5010 ft | 251 kts | 244° |
| 2026-05-07 20:11 | 53.67380 | 10.45624 | 5009 ft | 251 kts | 244° |
| 2026-05-07 20:11 | 53.66641 | 10.42956 | 5010 ft | 250 kts | 244° |
| 2026-05-07 20:12 | 53.65914 | 10.40310 | 4999 ft | 249 kts | 244° |
| 2026-05-07 20:12 | 53.65189 | 10.37657 | 4998 ft | 248 kts | 244° |
| 2026-05-07 20:12 | 53.64325 | 10.35150 | 4995 ft | 247 kts | 235° |
| 2026-05-07 20:12 | 53.63362 | 10.32752 | 4986 ft | 248 kts | 234° |
| 2026-05-07 20:13 | 53.62391 | 10.30360 | 4986 ft | 247 kts | 234° |
| 2026-05-07 20:13 | 53.61416 | 10.27965 | 4987 ft | 248 kts | 234° |
| 2026-05-07 20:13 | 53.60440 | 10.25572 | 4984 ft | 248 kts | 234° |
| 2026-05-07 20:13 | 53.59462 | 10.23178 | 4988 ft | 248 kts | 234° |
| 2026-05-07 20:14 | 53.58489 | 10.20795 | 4995 ft | 248 kts | 234° |
| 2026-05-07 20:14 | 53.57509 | 10.18404 | 4995 ft | 247 kts | 234° |
| 2026-05-07 20:14 | 53.56532 | 10.16014 | 4988 ft | 249 kts | 234° |
| 2026-05-07 20:14 | 53.55549 | 10.13618 | 4990 ft | 250 kts | 234° |
| 2026-05-07 20:15 | 53.54558 | 10.11215 | 4993 ft | 250 kts | 234° |
| 2026-05-07 20:15 | 53.53566 | 10.08811 | 5000 ft | 250 kts | 234° |
| 2026-05-07 20:15 | 53.52577 | 10.06411 | 4990 ft | 250 kts | 234° |
| 2026-05-07 20:15 | 53.51585 | 10.04008 | 4986 ft | 250 kts | 234° |
| 2026-05-07 20:16 | 53.50593 | 10.01606 | 4997 ft | 250 kts | 234° |
| 2026-05-07 20:16 | 53.49603 | 9.99207 | 4991 ft | 250 kts | 234° |
| 2026-05-07 20:16 | 53.48612 | 9.96806 | 4998 ft | 250 kts | 234° |
| 2026-05-07 20:16 | 53.47621 | 9.94406 | 4994 ft | 250 kts | 234° |
| 2026-05-07 20:17 | 53.46633 | 9.92012 | 4994 ft | 250 kts | 234° |
| 2026-05-07 20:17 | 53.45641 | 9.89614 | 4994 ft | 249 kts | 234° |
| 2026-05-07 20:17 | 53.44651 | 9.87219 | 4994 ft | 250 kts | 234° |
| 2026-05-07 20:17 | 53.43662 | 9.84829 | 4974 ft | 250 kts | 234° |
| 2026-05-07 20:18 | 53.42671 | 9.82439 | 4939 ft | 247 kts | 234° |
| 2026-05-07 20:18 | 53.41699 | 9.80089 | 4642 ft | 241 kts | 234° |
| 2026-05-07 20:18 | 53.40770 | 9.77829 | 4453 ft | 229 kts | 234° |
| 2026-05-07 20:18 | 53.39885 | 9.75665 | 4297 ft | 224 kts | 236° |
| 2026-05-07 20:19 | 53.39365 | 9.73235 | 4142 ft | 225 kts | 267° |
| 2026-05-07 20:19 | 53.39658 | 9.70689 | 4007 ft | 224 kts | 297° |
| 2026-05-07 20:19 | 53.40434 | 9.68430 | 3886 ft | 224 kts | 303° |
| 2026-05-07 20:19 | 53.41273 | 9.66225 | 3758 ft | 224 kts | 307° |
| 2026-05-07 20:20 | 53.42420 | 9.64554 | 3617 ft | 219 kts | 339° |
| 2026-05-07 20:20 | 53.43883 | 9.64142 | 3501 ft | 213 kts | 12° |
| 2026-05-07 20:20 | 53.45266 | 9.64917 | 3384 ft | 210 kts | 25° |
| 2026-05-07 20:20 | 53.46503 | 9.66103 | 3260 ft | 207 kts | 40° |
| 2026-05-07 20:21 | 53.47577 | 9.67733 | 3131 ft | 205 kts | 48° |
| 2026-05-07 20:21 | 53.48502 | 9.69506 | 3006 ft | 204 kts | 53° |
| 2026-05-07 20:21 | 53.49411 | 9.71338 | 2970 ft | 204 kts | 52° |
| 2026-05-07 20:21 | 53.50296 | 9.73117 | 2981 ft | 186 kts | 52° |
| 2026-05-07 20:22 | 53.51079 | 9.74692 | 2997 ft | 169 kts | 53° |
| 2026-05-07 20:22 | 53.51829 | 9.76204 | 2991 ft | 168 kts | 53° |
| 2026-05-07 20:22 | 53.52579 | 9.77716 | 2932 ft | 168 kts | 53° |
| 2026-05-07 20:22 | 53.53328 | 9.79223 | 2755 ft | 168 kts | 53° |
| 2026-05-07 20:23 | 53.54077 | 9.80733 | 2535 ft | 167 kts | 53° |
| 2026-05-07 20:23 | 53.54821 | 9.82233 | 2306 ft | 167 kts | 53° |
| 2026-05-07 20:23 | 53.55562 | 9.83727 | 2073 ft | 166 kts | 53° |
| 2026-05-07 20:23 | 53.56301 | 9.85219 | 1848 ft | 166 kts | 53° |
| 2026-05-07 20:24 | 53.57035 | 9.86699 | 1638 ft | 160 kts | 52° |
| 2026-05-07 20:24 | 53.57700 | 9.88040 | 1439 ft | 140 kts | 53° |
| 2026-05-07 20:24 | 53.58315 | 9.89284 | 1225 ft | 138 kts | 52° |
| 2026-05-07 20:24 | 53.58925 | 9.90516 | 1034 ft | 134 kts | 53° |
| 2026-05-07 20:25 | 53.59525 | 9.91728 | 841 ft | 135 kts | 52° |
| 2026-05-07 20:25 | 53.60126 | 9.92944 | 666 ft | 137 kts | 51° |
| 2026-05-07 20:25 | 53.60736 | 9.94193 | 513 ft | 138 kts | 51° |
| 2026-05-07 20:25 | 53.61341 | 9.95425 | 297 ft | 136 kts | 51° |
| 2026-05-07 20:26 | 53.61948 | 9.96627 | 112 ft | 135 kts | 50° |
| 2026-05-07 20:26 | 53.62348 | 9.97429 | 52 ft | 128 kts | 51° |
| 2026-05-07 20:26 | 53.62861 | 9.98472 | 49 ft | 95 kts | 51° |
| 2026-05-07 20:26 | 53.63174 | 9.99102 | 52 ft | 46 kts | 50° |
| 2026-05-07 20:27 | 53.63271 | 9.99321 | 52 ft | 21 kts | 72° |
| 2026-05-07 20:27 | 53.63286 | 9.99566 | 53 ft | 18 kts | 101° |
| 2026-05-07 20:27 | 53.63279 | 9.99632 | 54 ft | 0 kts | 98° |
| 2026-05-07 20:28 | 53.63279 | 9.99633 | 54 ft | 1 kts | 98° |
| 2026-05-07 20:28 | 53.63276 | 9.99662 | 54 ft | 4 kts | 97° |
| 2026-05-07 20:28 | 53.63274 | 9.99731 | 54 ft | 8 kts | 82° |
| 2026-05-07 20:28 | 53.63308 | 9.99824 | 54 ft | 11 kts | 48° |
| 2026-05-07 20:29 | 53.63366 | 9.99939 | 54 ft | 14 kts | 51° |
| 2026-05-07 20:29 | 53.63422 | 10.00073 | 54 ft | 13 kts | 82° |
| 2026-05-07 20:29 | 53.63392 | 10.00205 | 54 ft | 9 kts | 143° |
| 2026-05-07 20:29 | 53.63327 | 10.00233 | 54 ft | 11 kts | 175° |
| 2026-05-07 20:30 | 53.63247 | 10.00242 | 54 ft | 12 kts | 176° |
| 2026-05-07 20:30 | 53.63156 | 10.00254 | 52 ft | 14 kts | 175° |
| 2026-05-07 20:30 | 53.63086 | 10.00263 | 54 ft | 4 kts | 176° |
| 2026-05-07 20:30 | 53.63080 | 10.00263 | 54 ft | 0 kts | 175° |
| 2026-05-07 20:31 | 53.63067 | 10.00260 | 54 ft | 5 kts | 195° |
| 2026-05-07 20:31 | 53.63032 | 10.00292 | 54 ft | 7 kts | 123° |
| 2026-05-07 20:31 | 53.63012 | 10.00341 | 54 ft | 1 kts | 123° |
| 2026-05-07 20:32 | 53.63011 | 10.00345 | 54 ft | 0 kts | 123° |
| 2026-05-07 20:32 | 53.63011 | 10.00344 | 54 ft | 0 kts | 123° |